createdAt,value
2023-01-26T00:01:40.111Z,-0.33
2023-01-26T00:11:41.817Z,-0.41
2023-01-26T00:21:43.209Z,-0.39
2023-01-26T00:31:44.635Z,-0.37
2023-01-26T00:42:04.574Z,-0.33
2023-01-26T00:52:06.745Z,-0.24
2023-01-26T01:02:08.340Z,-0.24
2023-01-26T01:12:09.713Z,-0.26
2023-01-26T01:22:11.165Z,-0.16
2023-01-26T01:32:12.636Z,-0.15
2023-01-26T01:42:14.062Z,-0.15
2023-01-26T01:52:19.801Z,-0.10
2023-01-26T02:02:21.333Z,-0.08
2023-01-26T02:12:36.987Z,-0.10
2023-01-26T02:22:55.386Z,-0.08
2023-01-26T02:32:56.978Z,-0.09
2023-01-26T02:42:58.540Z,-0.04
2023-01-26T02:53:01.072Z,-0.05
2023-01-26T03:03:13.740Z,-0.08
2023-01-26T03:13:15.394Z,-0.03
2023-01-26T03:23:35.502Z,0.00
2023-01-26T03:33:36.897Z,-0.02
2023-01-26T03:43:56.935Z,0.03
2023-01-26T03:54:16.766Z,0.01
2023-01-26T04:04:36.524Z,0.03
2023-01-26T04:14:56.364Z,0.02
2023-01-26T04:24:57.889Z,0.03
2023-01-26T04:34:59.517Z,0.06
2023-01-26T04:45:01.001Z,0.11
2023-01-26T04:55:02.554Z,0.15
2023-01-26T05:05:04.308Z,0.17
2023-01-26T05:15:06.138Z,0.14
2023-01-26T05:25:07.891Z,0.19
2023-01-26T05:35:09.980Z,0.24
2023-01-26T05:45:11.438Z,0.21
2023-01-26T05:55:13.482Z,0.24
2023-01-26T06:05:15.079Z,0.18
2023-01-26T06:15:16.558Z,0.18
2023-01-26T06:25:18.104Z,0.19
2023-01-26T06:35:19.557Z,0.20
2023-01-26T06:45:21.053Z,0.35
2023-01-26T06:55:26.983Z,0.55
2023-01-26T07:05:28.464Z,0.48
2023-01-26T07:15:29.915Z,0.44
2023-01-26T07:25:31.391Z,0.42
2023-01-26T07:35:32.951Z,0.37
2023-01-26T07:45:35.935Z,0.51
2023-01-26T07:55:37.352Z,0.45
2023-01-26T08:05:39.000Z,0.46
2023-01-26T08:15:40.517Z,0.44
2023-01-26T08:25:41.999Z,0.39
2023-01-26T08:35:51.189Z,0.43
2023-01-26T08:45:52.768Z,0.54
2023-01-26T08:55:54.268Z,0.56
2023-01-26T09:06:00.369Z,0.56
2023-01-26T09:16:15.432Z,0.57
2023-01-26T09:26:16.917Z,0.59
2023-01-26T09:36:19.231Z,0.63
2023-01-26T09:46:51.476Z,0.68
2023-01-26T09:56:55.350Z,0.71
2023-01-26T10:06:57.802Z,0.79
2023-01-26T10:17:01.039Z,0.79
2023-01-26T10:27:02.672Z,0.96
2023-01-26T10:37:25.676Z,0.99
2023-01-26T10:47:28.361Z,1.03
2023-01-26T10:57:32.728Z,1.05
2023-01-26T11:07:42.108Z,1.05
2023-01-26T11:18:00.386Z,1.05
2023-01-26T11:28:20.583Z,1.13
2023-01-26T11:38:51.165Z,1.16
2023-01-26T11:49:14.641Z,1.25
2023-01-26T11:59:29.808Z,1.26
2023-01-26T12:09:42.717Z,1.32
2023-01-26T12:20:15.245Z,1.42
2023-01-26T12:30:27.001Z,1.44
2023-01-26T12:40:43.178Z,1.59
2023-01-26T12:50:51.065Z,1.70
2023-01-26T13:00:52.788Z,1.70
2023-01-26T13:10:55.075Z,1.78
2023-01-26T13:20:56.918Z,1.87
2023-01-26T13:31:06.579Z,1.90
2023-01-26T13:41:13.985Z,2.06
2023-01-26T13:51:21.120Z,2.16
2023-01-26T14:01:22.753Z,2.37
2023-01-26T14:11:26.629Z,2.58
2023-01-26T14:21:29.040Z,2.69
2023-01-26T14:31:32.333Z,2.74
2023-01-26T14:41:36.907Z,2.85
2023-01-26T14:51:39.155Z,2.97
2023-01-26T15:01:40.744Z,2.99
2023-01-26T15:12:00.969Z,3.30
2023-01-26T15:22:02.554Z,3.19
2023-01-26T15:32:04.110Z,3.28
2023-01-26T15:42:14.555Z,3.40
2023-01-26T15:52:23.320Z,3.40
2023-01-26T16:02:24.770Z,3.48
2023-01-26T16:12:31.868Z,3.63
2023-01-26T16:22:33.914Z,3.53
2023-01-26T16:32:35.376Z,3.63
2023-01-26T16:42:40.278Z,3.69
2023-01-26T16:52:42.076Z,3.76
2023-01-26T17:02:47.652Z,3.73
2023-01-26T17:12:49.026Z,3.79
2023-01-26T17:22:51.453Z,3.78
2023-01-26T17:32:52.842Z,3.88
2023-01-26T17:42:54.201Z,3.87
2023-01-26T17:52:55.640Z,3.91
2023-01-26T18:02:57.113Z,4.02
2023-01-26T18:12:58.681Z,3.94
2023-01-26T18:23:00.474Z,4.05
2023-01-26T18:33:02.551Z,4.03
2023-01-26T18:43:04.141Z,4.00
2023-01-26T18:53:05.649Z,3.98
2023-01-26T19:03:06.990Z,4.10
2023-01-26T19:13:08.754Z,4.07
2023-01-26T19:23:10.279Z,4.11
2023-01-26T19:33:23.815Z,4.34
2023-01-26T19:43:25.262Z,4.31
2023-01-26T19:53:27.847Z,4.40
2023-01-26T20:03:29.784Z,4.44
2023-01-26T20:13:31.925Z,4.42
2023-01-26T20:23:36.686Z,4.47
2023-01-26T20:33:38.800Z,4.53
2023-01-26T20:43:49.507Z,4.50
2023-01-26T20:53:51.279Z,4.54
2023-01-26T21:03:53.032Z,4.54
2023-01-26T21:14:00.995Z,4.55
2023-01-26T21:24:02.475Z,4.54
2023-01-26T21:34:03.984Z,4.50
2023-01-26T21:44:08.569Z,4.48
2023-01-26T21:54:10.362Z,4.43
2023-01-26T22:04:14.671Z,4.41
2023-01-26T22:14:21.656Z,4.39
2023-01-26T22:24:23.198Z,4.37
2023-01-26T22:34:24.752Z,4.30
2023-01-26T22:44:27.273Z,4.26
2023-01-26T22:54:28.625Z,4.22
2023-01-26T23:04:30.129Z,4.25
2023-01-26T23:14:32.791Z,4.23
2023-01-26T23:24:34.255Z,4.22
2023-01-26T23:34:35.653Z,4.19
2023-01-26T23:44:37.154Z,4.17
2023-01-26T23:54:38.593Z,4.18
